sensor_id;sensor_type;location;lat;lon;timestamp;P1;durP1;ratioP1;P2;durP2;ratioP2
23232;SDS011;11785;49.500;8.288;2023-04-24T00:00:17;2.10;;;1.00;;
23232;SDS011;11785;49.500;8.288;2023-04-24T00:02:43;2.20;;;0.82;;
23232;SDS011;11785;49.500;8.288;2023-04-24T00:05:13;4.45;;;1.08;;
23232;SDS011;11785;49.500;8.288;2023-04-24T00:07:40;3.08;;;1.08;;
23232;SDS011;11785;49.500;8.288;2023-04-24T00:10:06;2.60;;;1.00;;
23232;SDS011;11785;49.500;8.288;2023-04-24T00:12:32;1.83;;;1.20;;
23232;SDS011;11785;49.500;8.288;2023-04-24T00:14:58;1.67;;;0.90;;
23232;SDS011;11785;49.500;8.288;2023-04-24T00:17:24;2.90;;;1.30;;
23232;SDS011;11785;49.500;8.288;2023-04-24T00:19:50;2.90;;;1.23;;
23232;SDS011;11785;49.500;8.288;2023-04-24T00:22:16;2.80;;;1.00;;
23232;SDS011;11785;49.500;8.288;2023-04-24T00:24:42;2.67;;;1.08;;
23232;SDS011;11785;49.500;8.288;2023-04-24T00:27:08;1.20;;;1.10;;
23232;SDS011;11785;49.500;8.288;2023-04-24T00:29:34;1.27;;;1.10;;
23232;SDS011;11785;49.500;8.288;2023-04-24T00:31:59;2.92;;;1.20;;
23232;SDS011;11785;49.500;8.288;2023-04-24T00:34:25;2.58;;;1.02;;
23232;SDS011;11785;49.500;8.288;2023-04-24T00:36:50;4.32;;;1.10;;
23232;SDS011;11785;49.500;8.288;2023-04-24T00:39:18;1.70;;;1.02;;
23232;SDS011;11785;49.500;8.288;2023-04-24T00:41:44;2.67;;;1.20;;
23232;SDS011;11785;49.500;8.288;2023-04-24T00:44:10;3.03;;;1.10;;
23232;SDS011;11785;49.500;8.288;2023-04-24T00:46:36;4.10;;;0.90;;
23232;SDS011;11785;49.500;8.288;2023-04-24T00:49:02;2.58;;;0.90;;
23232;SDS011;11785;49.500;8.288;2023-04-24T00:51:29;5.47;;;1.17;;
23232;SDS011;11785;49.500;8.288;2023-04-24T01:00:10;2.88;;;1.10;;
23232;SDS011;11785;49.500;8.288;2023-04-24T01:02:38;2.42;;;0.88;;
23232;SDS011;11785;49.500;8.288;2023-04-24T01:05:11;3.75;;;1.02;;
23232;SDS011;11785;49.500;8.288;2023-04-24T01:07:38;1.55;;;0.90;;
23232;SDS011;11785;49.500;8.288;2023-04-24T01:10:05;3.35;;;1.00;;
23232;SDS011;11785;49.500;8.288;2023-04-24T01:12:32;2.30;;;0.75;;
23232;SDS011;11785;49.500;8.288;2023-04-24T01:14:58;2.17;;;1.10;;
23232;SDS011;11785;49.500;8.288;2023-04-24T01:17:24;3.95;;;0.93;;
23232;SDS011;11785;49.500;8.288;2023-04-24T01:19:50;1.77;;;0.93;;
23232;SDS011;11785;49.500;8.288;2023-04-24T01:22:18;2.65;;;1.00;;
23232;SDS011;11785;49.500;8.288;2023-04-24T01:24:45;3.13;;;1.15;;
23232;SDS011;11785;49.500;8.288;2023-04-24T01:27:11;2.85;;;1.17;;
23232;SDS011;11785;49.500;8.288;2023-04-24T01:29:37;3.13;;;1.10;;
23232;SDS011;11785;49.500;8.288;2023-04-24T01:32:04;3.03;;;0.90;;
23232;SDS011;11785;49.500;8.288;2023-04-24T01:34:30;2.63;;;1.10;;
23232;SDS011;11785;49.500;8.288;2023-04-24T01:36:56;1.48;;;1.00;;
23232;SDS011;11785;49.500;8.288;2023-04-24T01:39:22;1.25;;;1.10;;
23232;SDS011;11785;49.500;8.288;2023-04-24T01:41:51;2.50;;;1.20;;
23232;SDS011;11785;49.500;8.288;2023-04-24T01:44:17;5.13;;;1.13;;
23232;SDS011;11785;49.500;8.288;2023-04-24T01:46:43;2.70;;;0.90;;
23232;SDS011;11785;49.500;8.288;2023-04-24T01:49:09;2.22;;;1.08;;
23232;SDS011;11785;49.500;8.288;2023-04-24T01:51:35;1.88;;;0.90;;
23232;SDS011;11785;49.500;8.288;2023-04-24T01:54:00;3.55;;;1.30;;
23232;SDS011;11785;49.500;8.288;2023-04-24T01:56:26;1.80;;;1.10;;
23232;SDS011;11785;49.500;8.288;2023-04-24T01:58:54;4.38;;;1.60;;
23232;SDS011;11785;49.500;8.288;2023-04-24T02:01:21;2.08;;;1.00;;
23232;SDS011;11785;49.500;8.288;2023-04-24T02:03:48;2.65;;;1.20;;
23232;SDS011;11785;49.500;8.288;2023-04-24T02:06:13;3.90;;;1.35;;
23232;SDS011;11785;49.500;8.288;2023-04-24T02:08:39;2.25;;;1.20;;
23232;SDS011;11785;49.500;8.288;2023-04-24T02:11:05;3.92;;;1.38;;
23232;SDS011;11785;49.500;8.288;2023-04-24T02:13:30;5.75;;;1.38;;
23232;SDS011;11785;49.500;8.288;2023-04-24T02:15:57;6.03;;;1.60;;
23232;SDS011;11785;49.500;8.288;2023-04-24T02:18:23;3.63;;;1.40;;
23232;SDS011;11785;49.500;8.288;2023-04-24T02:20:49;2.33;;;1.80;;
23232;SDS011;11785;49.500;8.288;2023-04-24T02:23:14;4.00;;;1.65;;
23232;SDS011;11785;49.500;8.288;2023-04-24T02:25:40;9.55;;;1.63;;
23232;SDS011;11785;49.500;8.288;2023-04-24T02:28:06;3.20;;;1.48;;
23232;SDS011;11785;49.500;8.288;2023-04-24T02:30:31;4.10;;;1.48;;
23232;SDS011;11785;49.500;8.288;2023-04-24T02:32:57;3.47;;;1.00;;
23232;SDS011;11785;49.500;8.288;2023-04-24T02:35:22;2.17;;;1.00;;
23232;SDS011;11785;49.500;8.288;2023-04-24T02:37:48;4.05;;;1.40;;
23232;SDS011;11785;49.500;8.288;2023-04-24T02:40:13;1.55;;;1.20;;
23232;SDS011;11785;49.500;8.288;2023-04-24T02:42:39;1.42;;;1.15;;
23232;SDS011;11785;49.500;8.288;2023-04-24T02:45:05;1.20;;;1.10;;
23232;SDS011;11785;49.500;8.288;2023-04-24T02:47:31;1.90;;;1.42;;
23232;SDS011;11785;49.500;8.288;2023-04-24T02:49:56;2.15;;;1.10;;
23232;SDS011;11785;49.500;8.288;2023-04-24T02:52:22;1.42;;;1.08;;
23232;SDS011;11785;49.500;8.288;2023-04-24T02:54:47;4.30;;;1.27;;
23232;SDS011;11785;49.500;8.288;2023-04-24T02:57:13;3.25;;;1.40;;
23232;SDS011;11785;49.500;8.288;2023-04-24T02:59:39;4.45;;;1.90;;
23232;SDS011;11785;49.500;8.288;2023-04-24T03:02:05;2.53;;;1.58;;
23232;SDS011;11785;49.500;8.288;2023-04-24T03:04:30;3.28;;;1.73;;
23232;SDS011;11785;49.500;8.288;2023-04-24T03:06:57;3.13;;;1.75;;
23232;SDS011;11785;49.500;8.288;2023-04-24T03:09:22;2.10;;;1.90;;
23232;SDS011;11785;49.500;8.288;2023-04-24T03:11:48;2.13;;;1.67;;
23232;SDS011;11785;49.500;8.288;2023-04-24T03:14:14;1.95;;;1.60;;
23232;SDS011;11785;49.500;8.288;2023-04-24T03:16:40;3.92;;;1.80;;
23232;SDS011;11785;49.500;8.288;2023-04-24T03:19:05;2.70;;;1.75;;
23232;SDS011;11785;49.500;8.288;2023-04-24T03:21:31;2.78;;;2.00;;
23232;SDS011;11785;49.500;8.288;2023-04-24T03:23:57;2.38;;;2.10;;
23232;SDS011;11785;49.500;8.288;2023-04-24T03:26:22;1.98;;;1.67;;
23232;SDS011;11785;49.500;8.288;2023-04-24T03:28:48;3.83;;;2.00;;
23232;SDS011;11785;49.500;8.288;2023-04-24T03:31:13;1.48;;;1.38;;
23232;SDS011;11785;49.500;8.288;2023-04-24T03:33:40;2.83;;;2.10;;
23232;SDS011;11785;49.500;8.288;2023-04-24T03:36:06;1.92;;;1.73;;
23232;SDS011;11785;49.500;8.288;2023-04-24T03:38:31;1.75;;;1.65;;
23232;SDS011;11785;49.500;8.288;2023-04-24T03:40:57;1.85;;;1.75;;
23232;SDS011;11785;49.500;8.288;2023-04-24T03:43:23;2.10;;;1.63;;
23232;SDS011;11785;49.500;8.288;2023-04-24T03:45:48;1.90;;;1.65;;
23232;SDS011;11785;49.500;8.288;2023-04-24T03:48:14;2.70;;;1.75;;
23232;SDS011;11785;49.500;8.288;2023-04-24T03:50:39;2.40;;;1.98;;
23232;SDS011;11785;49.500;8.288;2023-04-24T03:53:05;5.47;;;1.80;;
23232;SDS011;11785;49.500;8.288;2023-04-24T03:55:31;3.13;;;1.90;;
23232;SDS011;11785;49.500;8.288;2023-04-24T03:57:56;2.47;;;1.85;;
23232;SDS011;11785;49.500;8.288;2023-04-24T04:00:22;2.03;;;1.83;;
23232;SDS011;11785;49.500;8.288;2023-04-24T04:02:48;2.05;;;1.85;;
23232;SDS011;11785;49.500;8.288;2023-04-24T04:05:14;4.50;;;2.47;;
23232;SDS011;11785;49.500;8.288;2023-04-24T04:07:39;3.03;;;2.50;;
23232;SDS011;11785;49.500;8.288;2023-04-24T04:10:05;5.60;;;2.70;;
23232;SDS011;11785;49.500;8.288;2023-04-24T04:12:32;4.80;;;2.35;;
23232;SDS011;11785;49.500;8.288;2023-04-24T04:14:57;2.75;;;2.55;;
23232;SDS011;11785;49.500;8.288;2023-04-24T04:17:23;2.92;;;2.50;;
23232;SDS011;11785;49.500;8.288;2023-04-24T04:19:48;5.05;;;2.72;;
23232;SDS011;11785;49.500;8.288;2023-04-24T04:22:14;3.83;;;2.78;;
23232;SDS011;11785;49.500;8.288;2023-04-24T04:24:40;3.03;;;2.63;;
23232;SDS011;11785;49.500;8.288;2023-04-24T04:27:05;3.00;;;2.70;;
23232;SDS011;11785;49.500;8.288;2023-04-24T04:29:31;3.80;;;3.00;;
23232;SDS011;11785;49.500;8.288;2023-04-24T04:31:57;3.60;;;2.97;;
23232;SDS011;11785;49.500;8.288;2023-04-24T04:34:23;3.80;;;3.00;;
23232;SDS011;11785;49.500;8.288;2023-04-24T04:36:49;3.20;;;2.90;;
23232;SDS011;11785;49.500;8.288;2023-04-24T04:39:15;3.35;;;3.05;;
23232;SDS011;11785;49.500;8.288;2023-04-24T04:41:41;4.15;;;3.15;;
23232;SDS011;11785;49.500;8.288;2023-04-24T04:44:07;4.38;;;2.80;;
23232;SDS011;11785;49.500;8.288;2023-04-24T04:46:33;5.13;;;3.03;;
23232;SDS011;11785;49.500;8.288;2023-04-24T04:48:59;5.00;;;2.92;;
23232;SDS011;11785;49.500;8.288;2023-04-24T04:51:26;3.10;;;2.80;;
23232;SDS011;11785;49.500;8.288;2023-04-24T04:53:52;3.13;;;2.80;;
23232;SDS011;11785;49.500;8.288;2023-04-24T04:56:18;6.10;;;2.58;;
23232;SDS011;11785;49.500;8.288;2023-04-24T04:58:43;5.50;;;2.95;;
23232;SDS011;11785;49.500;8.288;2023-04-24T05:01:09;3.35;;;2.75;;
23232;SDS011;11785;49.500;8.288;2023-04-24T05:03:35;3.78;;;2.67;;
23232;SDS011;11785;49.500;8.288;2023-04-24T05:06:00;3.20;;;2.42;;
23232;SDS011;11785;49.500;8.288;2023-04-24T05:08:27;3.83;;;2.75;;
23232;SDS011;11785;49.500;8.288;2023-04-24T05:10:52;3.90;;;2.85;;
23232;SDS011;11785;49.500;8.288;2023-04-24T05:13:18;2.80;;;2.60;;
23232;SDS011;11785;49.500;8.288;2023-04-24T05:15:44;2.72;;;2.20;;
23232;SDS011;11785;49.500;8.288;2023-04-24T05:18:09;4.45;;;2.88;;
23232;SDS011;11785;49.500;8.288;2023-04-24T05:20:35;3.50;;;2.75;;
23232;SDS011;11785;49.500;8.288;2023-04-24T05:23:00;3.13;;;2.55;;
23232;SDS011;11785;49.500;8.288;2023-04-24T05:25:26;4.80;;;3.35;;
23232;SDS011;11785;49.500;8.288;2023-04-24T05:27:52;4.82;;;3.05;;
23232;SDS011;11785;49.500;8.288;2023-04-24T05:30:18;5.15;;;3.38;;
23232;SDS011;11785;49.500;8.288;2023-04-24T05:32:44;8.07;;;3.80;;
23232;SDS011;11785;49.500;8.288;2023-04-24T05:35:10;4.93;;;3.15;;
23232;SDS011;11785;49.500;8.288;2023-04-24T05:37:36;8.07;;;3.28;;
23232;SDS011;11785;49.500;8.288;2023-04-24T05:40:02;5.15;;;3.20;;
23232;SDS011;11785;49.500;8.288;2023-04-24T05:42:30;4.93;;;3.58;;
23232;SDS011;11785;49.500;8.288;2023-04-24T05:44:55;4.40;;;3.17;;
23232;SDS011;11785;49.500;8.288;2023-04-24T05:47:21;4.40;;;3.60;;
23232;SDS011;11785;49.500;8.288;2023-04-24T05:49:47;10.15;;;3.70;;
23232;SDS011;11785;49.500;8.288;2023-04-24T05:52:13;4.18;;;3.35;;
23232;SDS011;11785;49.500;8.288;2023-04-24T05:54:38;6.03;;;3.72;;
23232;SDS011;11785;49.500;8.288;2023-04-24T05:57:04;7.00;;;4.00;;
23232;SDS011;11785;49.500;8.288;2023-04-24T05:59:33;4.60;;;3.80;;
23232;SDS011;11785;49.500;8.288;2023-04-24T06:02:03;4.75;;;3.40;;
23232;SDS011;11785;49.500;8.288;2023-04-24T06:04:29;7.10;;;2.90;;
23232;SDS011;11785;49.500;8.288;2023-04-24T06:06:54;5.03;;;3.50;;
23232;SDS011;11785;49.500;8.288;2023-04-24T06:09:24;5.00;;;3.05;;
23232;SDS011;11785;49.500;8.288;2023-04-24T06:11:50;4.60;;;2.78;;
23232;SDS011;11785;49.500;8.288;2023-04-24T06:14:19;3.83;;;2.83;;
23232;SDS011;11785;49.500;8.288;2023-04-24T06:16:45;4.18;;;3.38;;
23232;SDS011;11785;49.500;8.288;2023-04-24T06:19:10;4.25;;;2.88;;
23232;SDS011;11785;49.500;8.288;2023-04-24T06:21:36;3.20;;;2.70;;
23232;SDS011;11785;49.500;8.288;2023-04-24T06:24:01;3.67;;;2.88;;
23232;SDS011;11785;49.500;8.288;2023-04-24T06:26:28;5.03;;;3.03;;
23232;SDS011;11785;49.500;8.288;2023-04-24T06:28:54;3.03;;;2.63;;
23232;SDS011;11785;49.500;8.288;2023-04-24T06:31:20;4.15;;;2.80;;
23232;SDS011;11785;49.500;8.288;2023-04-24T06:33:45;3.15;;;2.40;;
23232;SDS011;11785;49.500;8.288;2023-04-24T06:36:11;2.80;;;2.30;;
23232;SDS011;11785;49.500;8.288;2023-04-24T06:38:37;3.00;;;2.70;;
23232;SDS011;11785;49.500;8.288;2023-04-24T06:41:03;5.10;;;2.60;;
23232;SDS011;11785;49.500;8.288;2023-04-24T06:43:30;2.85;;;2.53;;
23232;SDS011;11785;49.500;8.288;2023-04-24T06:45:56;3.92;;;2.78;;
23232;SDS011;11785;49.500;8.288;2023-04-24T06:48:23;3.67;;;2.50;;
23232;SDS011;11785;49.500;8.288;2023-04-24T06:50:50;4.03;;;2.70;;
23232;SDS011;11785;49.500;8.288;2023-04-24T06:53:15;3.45;;;2.72;;
23232;SDS011;11785;49.500;8.288;2023-04-24T06:55:41;3.38;;;2.17;;
23232;SDS011;11785;49.500;8.288;2023-04-24T06:58:08;2.25;;;1.98;;
23232;SDS011;11785;49.500;8.288;2023-04-24T07:00:33;1.67;;;1.58;;
23232;SDS011;11785;49.500;8.288;2023-04-24T07:02:59;1.90;;;1.80;;
23232;SDS011;11785;49.500;8.288;2023-04-24T07:05:25;2.72;;;1.75;;
23232;SDS011;11785;49.500;8.288;2023-04-24T07:07:50;2.20;;;2.00;;
23232;SDS011;11785;49.500;8.288;2023-04-24T07:10:16;2.40;;;1.73;;
23232;SDS011;11785;49.500;8.288;2023-04-24T07:12:42;3.00;;;1.85;;
23232;SDS011;11785;49.500;8.288;2023-04-24T07:15:07;5.28;;;1.33;;
23232;SDS011;11785;49.500;8.288;2023-04-24T07:17:34;2.67;;;1.55;;
23232;SDS011;11785;49.500;8.288;2023-04-24T07:20:00;2.47;;;1.55;;
23232;SDS011;11785;49.500;8.288;2023-04-24T07:22:26;3.75;;;1.75;;
23232;SDS011;11785;49.500;8.288;2023-04-24T07:24:51;2.58;;;1.63;;
23232;SDS011;11785;49.500;8.288;2023-04-24T07:27:17;2.75;;;1.13;;
23232;SDS011;11785;49.500;8.288;2023-04-24T07:29:42;1.73;;;1.60;;
23232;SDS011;11785;49.500;8.288;2023-04-24T07:32:08;2.42;;;1.25;;
23232;SDS011;11785;49.500;8.288;2023-04-24T07:34:34;2.58;;;1.40;;
23232;SDS011;11785;49.500;8.288;2023-04-24T07:37:00;2.50;;;1.15;;
23232;SDS011;11785;49.500;8.288;2023-04-24T07:39:26;3.17;;;1.63;;
23232;SDS011;11785;49.500;8.288;2023-04-24T07:41:52;2.47;;;1.40;;
23232;SDS011;11785;49.500;8.288;2023-04-24T07:44:18;2.45;;;1.33;;
23232;SDS011;11785;49.500;8.288;2023-04-24T07:46:43;1.70;;;1.60;;
23232;SDS011;11785;49.500;8.288;2023-04-24T07:49:09;5.40;;;1.67;;
23232;SDS011;11785;49.500;8.288;2023-04-24T07:51:35;2.80;;;1.85;;
23232;SDS011;11785;49.500;8.288;2023-04-24T07:54:04;2.97;;;1.40;;
23232;SDS011;11785;49.500;8.288;2023-04-24T07:56:32;2.58;;;1.48;;
23232;SDS011;11785;49.500;8.288;2023-04-24T07:58:59;4.10;;;1.40;;
23232;SDS011;11785;49.500;8.288;2023-04-24T08:01:26;3.88;;;1.33;;
23232;SDS011;11785;49.500;8.288;2023-04-24T08:03:51;3.08;;;1.15;;
23232;SDS011;11785;49.500;8.288;2023-04-24T08:06:17;2.15;;;1.63;;
23232;SDS011;11785;49.500;8.288;2023-04-24T08:08:43;1.65;;;1.55;;
23232;SDS011;11785;49.500;8.288;2023-04-24T08:11:08;4.50;;;1.70;;
23232;SDS011;11785;49.500;8.288;2023-04-24T08:13:34;3.33;;;1.65;;
23232;SDS011;11785;49.500;8.288;2023-04-24T08:15:59;2.28;;;1.38;;
23232;SDS011;11785;49.500;8.288;2023-04-24T08:18:25;2.55;;;1.75;;
23232;SDS011;11785;49.500;8.288;2023-04-24T08:20:51;4.50;;;2.00;;
23232;SDS011;11785;49.500;8.288;2023-04-24T08:23:16;4.38;;;1.83;;
23232;SDS011;11785;49.500;8.288;2023-04-24T08:25:42;2.95;;;2.13;;
23232;SDS011;11785;49.500;8.288;2023-04-24T08:28:08;2.22;;;1.95;;
23232;SDS011;11785;49.500;8.288;2023-04-24T08:30:34;2.83;;;1.60;;
23232;SDS011;11785;49.500;8.288;2023-04-24T08:33:00;3.85;;;2.00;;
23232;SDS011;11785;49.500;8.288;2023-04-24T08:35:25;3.88;;;1.80;;
23232;SDS011;11785;49.500;8.288;2023-04-24T08:37:52;1.88;;;1.40;;
23232;SDS011;11785;49.500;8.288;2023-04-24T08:40:18;1.65;;;1.30;;
23232;SDS011;11785;49.500;8.288;2023-04-24T08:42:53;2.25;;;1.58;;
23232;SDS011;11785;49.500;8.288;2023-04-24T08:45:20;103.40;;;7.22;;
23232;SDS011;11785;49.500;8.288;2023-04-24T08:47:46;2.90;;;1.90;;
23232;SDS011;11785;49.500;8.288;2023-04-24T08:50:12;2.33;;;1.80;;
23232;SDS011;11785;49.500;8.288;2023-04-24T08:52:38;2.22;;;1.70;;
23232;SDS011;11785;49.500;8.288;2023-04-24T08:55:04;1.83;;;1.42;;
23232;SDS011;11785;49.500;8.288;2023-04-24T08:57:30;2.75;;;1.50;;
23232;SDS011;11785;49.500;8.288;2023-04-24T08:59:57;3.97;;;1.45;;
23232;SDS011;11785;49.500;8.288;2023-04-24T09:02:23;6.07;;;1.55;;
23232;SDS011;11785;49.500;8.288;2023-04-24T09:04:50;1.85;;;1.55;;
23232;SDS011;11785;49.500;8.288;2023-04-24T09:07:17;5.38;;;1.90;;
23232;SDS011;11785;49.500;8.288;2023-04-24T09:09:44;3.50;;;1.30;;
23232;SDS011;11785;49.500;8.288;2023-04-24T09:12:10;3.67;;;1.90;;
23232;SDS011;11785;49.500;8.288;2023-04-24T09:14:36;4.10;;;1.55;;
23232;SDS011;11785;49.500;8.288;2023-04-24T09:17:07;2.30;;;1.70;;
23232;SDS011;11785;49.500;8.288;2023-04-24T09:19:33;2.15;;;1.83;;
23232;SDS011;11785;49.500;8.288;2023-04-24T09:21:58;3.45;;;1.83;;
23232;SDS011;11785;49.500;8.288;2023-04-24T09:24:24;2.80;;;2.42;;
23232;SDS011;11785;49.500;8.288;2023-04-24T09:26:56;2.35;;;2.08;;
23232;SDS011;11785;49.500;8.288;2023-04-24T09:29:23;2.85;;;1.70;;
23232;SDS011;11785;49.500;8.288;2023-04-24T09:31:49;2.45;;;1.83;;
23232;SDS011;11785;49.500;8.288;2023-04-24T09:34:19;4.13;;;1.90;;
23232;SDS011;11785;49.500;8.288;2023-04-24T09:36:47;1.58;;;1.48;;
23232;SDS011;11785;49.500;8.288;2023-04-24T09:39:14;2.67;;;1.60;;
23232;SDS011;11785;49.500;8.288;2023-04-24T09:41:51;2.95;;;1.55;;
23232;SDS011;11785;49.500;8.288;2023-04-24T09:46:54;2.35;;;1.80;;
23232;SDS011;11785;49.500;8.288;2023-04-24T09:49:22;2.35;;;1.88;;
23232;SDS011;11785;49.500;8.288;2023-04-24T09:52:10;2.38;;;2.00;;
23232;SDS011;11785;49.500;8.288;2023-04-24T09:54:36;1.40;;;1.30;;
23232;SDS011;11785;49.500;8.288;2023-04-24T09:57:02;2.42;;;1.77;;
23232;SDS011;11785;49.500;8.288;2023-04-24T09:59:29;1.75;;;1.30;;
23232;SDS011;11785;49.500;8.288;2023-04-24T10:01:54;3.63;;;1.40;;
23232;SDS011;11785;49.500;8.288;2023-04-24T10:04:22;1.77;;;1.17;;
23232;SDS011;11785;49.500;8.288;2023-04-24T10:06:49;1.58;;;1.15;;
23232;SDS011;11785;49.500;8.288;2023-04-24T10:09:17;1.50;;;1.08;;
23232;SDS011;11785;49.500;8.288;2023-04-24T10:11:44;4.30;;;1.70;;
23232;SDS011;11785;49.500;8.288;2023-04-24T10:14:12;2.28;;;1.45;;
23232;SDS011;11785;49.500;8.288;2023-04-24T10:16:39;3.95;;;1.60;;
23232;SDS011;11785;49.500;8.288;2023-04-24T10:19:05;2.65;;;1.75;;
23232;SDS011;11785;49.500;8.288;2023-04-24T10:21:31;1.95;;;1.63;;
23232;SDS011;11785;49.500;8.288;2023-04-24T10:23:59;2.17;;;1.80;;
23232;SDS011;11785;49.500;8.288;2023-04-24T10:26:28;3.05;;;1.63;;
23232;SDS011;11785;49.500;8.288;2023-04-24T10:28:54;2.17;;;1.98;;
23232;SDS011;11785;49.500;8.288;2023-04-24T10:31:22;2.65;;;2.05;;
23232;SDS011;11785;49.500;8.288;2023-04-24T10:33:49;4.88;;;1.98;;
23232;SDS011;11785;49.500;8.288;2023-04-24T10:36:16;2.78;;;1.75;;
23232;SDS011;11785;49.500;8.288;2023-04-24T10:38:43;2.97;;;2.05;;
23232;SDS011;11785;49.500;8.288;2023-04-24T10:41:12;3.47;;;1.80;;
23232;SDS011;11785;49.500;8.288;2023-04-24T10:43:44;3.53;;;1.73;;
23232;SDS011;11785;49.500;8.288;2023-04-24T10:46:10;3.55;;;2.00;;
23232;SDS011;11785;49.500;8.288;2023-04-24T10:48:44;2.63;;;2.10;;
23232;SDS011;11785;49.500;8.288;2023-04-24T10:51:21;3.25;;;2.08;;
23232;SDS011;11785;49.500;8.288;2023-04-24T10:54:29;3.42;;;2.00;;
23232;SDS011;11785;49.500;8.288;2023-04-24T10:59:43;4.47;;;2.30;;
23232;SDS011;11785;49.500;8.288;2023-04-24T11:02:09;4.47;;;1.77;;
23232;SDS011;11785;49.500;8.288;2023-04-24T11:04:35;3.05;;;2.25;;
23232;SDS011;11785;49.500;8.288;2023-04-24T11:07:02;6.97;;;2.22;;
23232;SDS011;11785;49.500;8.288;2023-04-24T11:09:30;4.60;;;2.20;;
23232;SDS011;11785;49.500;8.288;2023-04-24T11:12:04;3.55;;;1.90;;
23232;SDS011;11785;49.500;8.288;2023-04-24T11:17:27;4.07;;;2.80;;
23232;SDS011;11785;49.500;8.288;2023-04-24T11:20:06;3.15;;;2.20;;
23232;SDS011;11785;49.500;8.288;2023-04-24T11:22:35;2.45;;;2.10;;
23232;SDS011;11785;49.500;8.288;2023-04-24T11:25:04;4.72;;;2.80;;
23232;SDS011;11785;49.500;8.288;2023-04-24T11:27:32;6.45;;;2.42;;
23232;SDS011;11785;49.500;8.288;2023-04-24T11:30:07;3.53;;;2.10;;
23232;SDS011;11785;49.500;8.288;2023-04-24T11:35:03;3.95;;;2.40;;
23232;SDS011;11785;49.500;8.288;2023-04-24T11:37:44;3.40;;;2.05;;
23232;SDS011;11785;49.500;8.288;2023-04-24T11:40:14;3.22;;;2.65;;
23232;SDS011;11785;49.500;8.288;2023-04-24T11:42:42;4.53;;;2.85;;
23232;SDS011;11785;49.500;8.288;2023-04-24T11:45:12;5.38;;;2.63;;
23232;SDS011;11785;49.500;8.288;2023-04-24T11:47:40;3.90;;;2.60;;
23232;SDS011;11785;49.500;8.288;2023-04-24T11:50:07;6.60;;;2.92;;
23232;SDS011;11785;49.500;8.288;2023-04-24T11:52:39;3.65;;;2.60;;
23232;SDS011;11785;49.500;8.288;2023-04-24T11:55:07;3.60;;;2.50;;
23232;SDS011;11785;49.500;8.288;2023-04-24T11:57:33;3.90;;;2.58;;
23232;SDS011;11785;49.500;8.288;2023-04-24T12:00:01;2.83;;;2.33;;
23232;SDS011;11785;49.500;8.288;2023-04-24T12:02:28;4.18;;;2.53;;
23232;SDS011;11785;49.500;8.288;2023-04-24T12:04:54;3.42;;;2.00;;
23232;SDS011;11785;49.500;8.288;2023-04-24T12:07:20;4.63;;;2.40;;
23232;SDS011;11785;49.500;8.288;2023-04-24T12:09:48;2.95;;;2.00;;
23232;SDS011;11785;49.500;8.288;2023-04-24T12:12:24;5.63;;;2.50;;
23232;SDS011;11785;49.500;8.288;2023-04-24T12:14:55;2.85;;;2.03;;
23232;SDS011;11785;49.500;8.288;2023-04-24T12:17:27;3.72;;;2.25;;
23232;SDS011;11785;49.500;8.288;2023-04-24T12:20:05;4.82;;;2.63;;
23232;SDS011;11785;49.500;8.288;2023-04-24T12:25:18;4.70;;;2.28;;
23232;SDS011;11785;49.500;8.288;2023-04-24T12:27:46;5.22;;;2.78;;
23232;SDS011;11785;49.500;8.288;2023-04-24T12:30:17;6.00;;;2.30;;
23232;SDS011;11785;49.500;8.288;2023-04-24T12:32:46;6.88;;;2.30;;
23232;SDS011;11785;49.500;8.288;2023-04-24T12:35:13;2.80;;;2.38;;
23232;SDS011;11785;49.500;8.288;2023-04-24T12:37:47;4.20;;;2.28;;
23232;SDS011;11785;49.500;8.288;2023-04-24T12:40:13;3.22;;;2.10;;
23232;SDS011;11785;49.500;8.288;2023-04-24T12:42:43;3.85;;;2.13;;
23232;SDS011;11785;49.500;8.288;2023-04-24T12:45:14;3.10;;;2.10;;
23232;SDS011;11785;49.500;8.288;2023-04-24T12:47:41;7.10;;;2.42;;
23232;SDS011;11785;49.500;8.288;2023-04-24T12:50:08;3.22;;;2.13;;
23232;SDS011;11785;49.500;8.288;2023-04-24T12:52:35;4.55;;;2.60;;
23232;SDS011;11785;49.500;8.288;2023-04-24T12:55:01;5.30;;;2.38;;
23232;SDS011;11785;49.500;8.288;2023-04-24T12:57:29;3.78;;;2.45;;
23232;SDS011;11785;49.500;8.288;2023-04-24T12:59:58;11.65;;;2.88;;
23232;SDS011;11785;49.500;8.288;2023-04-24T13:02:25;3.55;;;2.17;;
23232;SDS011;11785;49.500;8.288;2023-04-24T13:04:52;4.20;;;2.17;;
23232;SDS011;11785;49.500;8.288;2023-04-24T13:07:17;3.22;;;2.20;;
23232;SDS011;11785;49.500;8.288;2023-04-24T13:09:44;5.72;;;2.15;;
23232;SDS011;11785;49.500;8.288;2023-04-24T13:12:10;2.25;;;2.05;;
23232;SDS011;11785;49.500;8.288;2023-04-24T13:14:36;3.38;;;1.95;;
23232;SDS011;11785;49.500;8.288;2023-04-24T13:17:03;2.88;;;2.35;;
23232;SDS011;11785;49.500;8.288;2023-04-24T13:19:29;2.70;;;1.92;;
23232;SDS011;11785;49.500;8.288;2023-04-24T13:21:55;7.25;;;2.30;;
23232;SDS011;11785;49.500;8.288;2023-04-24T13:24:22;2.90;;;2.45;;
23232;SDS011;11785;49.500;8.288;2023-04-24T13:26:52;3.15;;;2.28;;
23232;SDS011;11785;49.500;8.288;2023-04-24T13:29:18;4.68;;;2.50;;
23232;SDS011;11785;49.500;8.288;2023-04-24T13:31:43;6.13;;;2.30;;
23232;SDS011;11785;49.500;8.288;2023-04-24T13:34:09;5.20;;;2.30;;
23232;SDS011;11785;49.500;8.288;2023-04-24T13:36:35;2.75;;;2.33;;
23232;SDS011;11785;49.500;8.288;2023-04-24T13:39:01;3.47;;;2.40;;
23232;SDS011;11785;49.500;8.288;2023-04-24T13:41:29;5.03;;;2.95;;
23232;SDS011;11785;49.500;8.288;2023-04-24T13:43:55;4.20;;;2.63;;
23232;SDS011;11785;49.500;8.288;2023-04-24T13:46:20;4.63;;;2.92;;
23232;SDS011;11785;49.500;8.288;2023-04-24T13:48:46;4.53;;;2.63;;
23232;SDS011;11785;49.500;8.288;2023-04-24T13:51:11;5.25;;;2.70;;
23232;SDS011;11785;49.500;8.288;2023-04-24T13:53:37;4.05;;;2.75;;
23232;SDS011;11785;49.500;8.288;2023-04-24T13:56:03;7.25;;;2.80;;
23232;SDS011;11785;49.500;8.288;2023-04-24T13:58:30;6.05;;;2.90;;
23232;SDS011;11785;49.500;8.288;2023-04-24T14:00:57;6.80;;;2.50;;
23232;SDS011;11785;49.500;8.288;2023-04-24T14:03:22;4.20;;;2.30;;
23232;SDS011;11785;49.500;8.288;2023-04-24T14:05:48;3.95;;;2.42;;
23232;SDS011;11785;49.500;8.288;2023-04-24T14:08:13;6.93;;;2.50;;
23232;SDS011;11785;49.500;8.288;2023-04-24T14:10:39;6.35;;;2.13;;
23232;SDS011;11785;49.500;8.288;2023-04-24T14:13:04;2.28;;;1.60;;
23232;SDS011;11785;49.500;8.288;2023-04-24T14:15:31;3.22;;;1.77;;
23232;SDS011;11785;49.500;8.288;2023-04-24T14:17:57;2.75;;;1.70;;
23232;SDS011;11785;49.500;8.288;2023-04-24T14:20:22;2.80;;;1.73;;
23232;SDS011;11785;49.500;8.288;2023-04-24T14:22:48;2.83;;;1.67;;
23232;SDS011;11785;49.500;8.288;2023-04-24T14:25:14;3.15;;;1.52;;
23232;SDS011;11785;49.500;8.288;2023-04-24T14:27:40;1.88;;;1.60;;
23232;SDS011;11785;49.500;8.288;2023-04-24T14:30:06;2.70;;;1.98;;
23232;SDS011;11785;49.500;8.288;2023-04-24T14:32:32;5.25;;;2.10;;
23232;SDS011;11785;49.500;8.288;2023-04-24T14:34:58;2.90;;;2.05;;
23232;SDS011;11785;49.500;8.288;2023-04-24T14:37:23;2.65;;;2.17;;
23232;SDS011;11785;49.500;8.288;2023-04-24T14:39:49;5.75;;;2.50;;
23232;SDS011;11785;49.500;8.288;2023-04-24T14:42:15;2.85;;;2.15;;
23232;SDS011;11785;49.500;8.288;2023-04-24T14:44:42;4.18;;;2.50;;
23232;SDS011;11785;49.500;8.288;2023-04-24T14:47:07;3.08;;;2.40;;
23232;SDS011;11785;49.500;8.288;2023-04-24T14:49:33;5.65;;;2.47;;
23232;SDS011;11785;49.500;8.288;2023-04-24T14:51:59;4.90;;;2.33;;
23232;SDS011;11785;49.500;8.288;2023-04-24T14:54:24;2.95;;;2.55;;
23232;SDS011;11785;49.500;8.288;2023-04-24T14:56:50;4.20;;;2.00;;
23232;SDS011;11785;49.500;8.288;2023-04-24T14:59:16;3.00;;;2.70;;
23232;SDS011;11785;49.500;8.288;2023-04-24T15:01:42;4.55;;;3.08;;
23232;SDS011;11785;49.500;8.288;2023-04-24T15:04:07;6.55;;;2.97;;